sensor_id;sensor_type;location;lat;lon;timestamp;P1;durP1;ratioP1;P2;durP2;ratioP2
57989;SDS011;58373;51.824;5.564;2022-08-06T00:01:54;8.13;;;3.80;;
57989;SDS011;58373;51.824;5.564;2022-08-06T00:04:20;9.70;;;3.75;;
57989;SDS011;58373;51.824;5.564;2022-08-06T00:06:46;11.18;;;4.00;;
57989;SDS011;58373;51.824;5.564;2022-08-06T00:09:12;7.88;;;3.40;;
57989;SDS011;58373;51.824;5.564;2022-08-06T00:11:40;9.55;;;3.10;;
57989;SDS011;58373;51.824;5.564;2022-08-06T00:16:32;8.07;;;2.97;;
57989;SDS011;58373;51.824;5.564;2022-08-06T00:18:58;10.40;;;3.30;;
57989;SDS011;58373;51.824;5.564;2022-08-06T00:21:23;7.70;;;3.28;;
57989;SDS011;58373;51.824;5.564;2022-08-06T00:23:49;8.43;;;2.90;;
57989;SDS011;58373;51.824;5.564;2022-08-06T00:26:14;13.35;;;3.15;;
57989;SDS011;58373;51.824;5.564;2022-08-06T00:28:39;7.47;;;2.70;;
57989;SDS011;58373;51.824;5.564;2022-08-06T00:31:05;9.32;;;3.17;;
57989;SDS011;58373;51.824;5.564;2022-08-06T00:33:32;7.90;;;2.80;;
57989;SDS011;58373;51.824;5.564;2022-08-06T00:35:58;6.45;;;2.58;;
57989;SDS011;58373;51.824;5.564;2022-08-06T00:38:23;6.95;;;2.67;;
57989;SDS011;58373;51.824;5.564;2022-08-06T00:40:48;7.03;;;2.70;;
57989;SDS011;58373;51.824;5.564;2022-08-06T00:43:14;10.93;;;3.38;;
57989;SDS011;58373;51.824;5.564;2022-08-06T00:45:40;7.30;;;3.33;;
57989;SDS011;58373;51.824;5.564;2022-08-06T00:48:06;9.07;;;2.97;;
57989;SDS011;58373;51.824;5.564;2022-08-06T00:50:32;8.15;;;3.25;;
57989;SDS011;58373;51.824;5.564;2022-08-06T00:52:58;8.65;;;3.20;;
57989;SDS011;58373;51.824;5.564;2022-08-06T00:55:25;8.60;;;3.30;;
57989;SDS011;58373;51.824;5.564;2022-08-06T00:57:50;7.82;;;3.50;;
57989;SDS011;58373;51.824;5.564;2022-08-06T01:00:16;8.43;;;3.08;;
57989;SDS011;58373;51.824;5.564;2022-08-06T01:02:41;8.82;;;3.20;;
57989;SDS011;58373;51.824;5.564;2022-08-06T01:05:07;8.23;;;3.22;;
57989;SDS011;58373;51.824;5.564;2022-08-06T01:07:32;10.18;;;3.17;;
57989;SDS011;58373;51.824;5.564;2022-08-06T01:09:58;8.32;;;3.17;;
57989;SDS011;58373;51.824;5.564;2022-08-06T01:12:24;9.30;;;3.13;;
57989;SDS011;58373;51.824;5.564;2022-08-06T01:14:50;8.30;;;3.22;;
57989;SDS011;58373;51.824;5.564;2022-08-06T01:17:17;6.90;;;2.97;;
57989;SDS011;58373;51.824;5.564;2022-08-06T01:28:28;7.60;;;2.80;;
57989;SDS011;58373;51.824;5.564;2022-08-06T01:31:05;7.93;;;2.60;;
57989;SDS011;58373;51.824;5.564;2022-08-06T01:33:38;7.38;;;2.70;;
57989;SDS011;58373;51.824;5.564;2022-08-06T01:36:09;6.88;;;2.70;;
57989;SDS011;58373;51.824;5.564;2022-08-06T01:38:41;10.27;;;3.00;;
57989;SDS011;58373;51.824;5.564;2022-08-06T01:41:11;7.95;;;2.63;;
57989;SDS011;58373;51.824;5.564;2022-08-06T01:43:59;6.88;;;2.92;;
57989;SDS011;58373;51.824;5.564;2022-08-06T01:46:26;8.70;;;2.75;;
57989;SDS011;58373;51.824;5.564;2022-08-06T01:48:52;8.30;;;2.78;;
57989;SDS011;58373;51.824;5.564;2022-08-06T01:51:18;8.90;;;2.72;;
57989;SDS011;58373;51.824;5.564;2022-08-06T01:53:44;8.02;;;3.00;;
57989;SDS011;58373;51.824;5.564;2022-08-06T01:56:10;8.98;;;2.72;;
57989;SDS011;58373;51.824;5.564;2022-08-06T01:58:38;7.68;;;2.78;;
57989;SDS011;58373;51.824;5.564;2022-08-06T02:01:08;7.43;;;2.97;;
57989;SDS011;58373;51.824;5.564;2022-08-06T02:03:42;10.68;;;3.38;;
57989;SDS011;58373;51.824;5.564;2022-08-06T02:06:14;7.22;;;2.60;;
57989;SDS011;58373;51.824;5.564;2022-08-06T02:08:45;11.00;;;3.13;;
57989;SDS011;58373;51.824;5.564;2022-08-06T02:11:11;5.38;;;2.70;;
57989;SDS011;58373;51.824;5.564;2022-08-06T02:13:37;6.60;;;2.63;;
57989;SDS011;58373;51.824;5.564;2022-08-06T02:16:05;6.72;;;2.50;;
57989;SDS011;58373;51.824;5.564;2022-08-06T02:18:34;8.85;;;3.05;;
57989;SDS011;58373;51.824;5.564;2022-08-06T02:21:03;6.63;;;3.05;;
57989;SDS011;58373;51.824;5.564;2022-08-06T02:23:32;8.63;;;3.00;;
57989;SDS011;58373;51.824;5.564;2022-08-06T02:26:00;8.82;;;3.50;;
57989;SDS011;58373;51.824;5.564;2022-08-06T02:28:27;8.20;;;3.10;;
57989;SDS011;58373;51.824;5.564;2022-08-06T02:30:55;8.60;;;3.00;;
57989;SDS011;58373;51.824;5.564;2022-08-06T02:33:22;8.83;;;3.20;;
57989;SDS011;58373;51.824;5.564;2022-08-06T02:35:49;7.63;;;3.00;;
57989;SDS011;58373;51.824;5.564;2022-08-06T02:40:48;9.10;;;3.30;;
57989;SDS011;58373;51.824;5.564;2022-08-06T02:43:22;5.78;;;2.88;;
57989;SDS011;58373;51.824;5.564;2022-08-06T02:46:00;6.72;;;2.80;;
57989;SDS011;58373;51.824;5.564;2022-08-06T02:48:47;7.25;;;2.90;;
57989;SDS011;58373;51.824;5.564;2022-08-06T02:51:21;7.65;;;3.05;;
57989;SDS011;58373;51.824;5.564;2022-08-06T02:54:10;9.52;;;3.22;;
57989;SDS011;58373;51.824;5.564;2022-08-06T02:56:40;8.32;;;3.35;;
57989;SDS011;58373;51.824;5.564;2022-08-06T02:59:09;8.15;;;3.28;;
57989;SDS011;58373;51.824;5.564;2022-08-06T03:01:45;8.63;;;3.35;;
57989;SDS011;58373;51.824;5.564;2022-08-06T03:04:17;6.40;;;2.95;;
57989;SDS011;58373;51.824;5.564;2022-08-06T03:06:47;7.82;;;3.28;;
57989;SDS011;58373;51.824;5.564;2022-08-06T03:09:14;7.65;;;2.90;;
57989;SDS011;58373;51.824;5.564;2022-08-06T03:11:42;8.48;;;3.30;;
57989;SDS011;58373;51.824;5.564;2022-08-06T03:14:11;7.80;;;3.05;;
57989;SDS011;58373;51.824;5.564;2022-08-06T03:16:39;8.10;;;3.15;;
57989;SDS011;58373;51.824;5.564;2022-08-06T03:19:06;10.20;;;3.03;;
57989;SDS011;58373;51.824;5.564;2022-08-06T03:21:33;7.97;;;3.00;;
57989;SDS011;58373;51.824;5.564;2022-08-06T03:24:00;9.48;;;3.10;;
57989;SDS011;58373;51.824;5.564;2022-08-06T03:26:28;6.55;;;2.97;;
57989;SDS011;58373;51.824;5.564;2022-08-06T03:28:55;7.80;;;3.22;;
57989;SDS011;58373;51.824;5.564;2022-08-06T03:31:24;8.45;;;3.50;;
57989;SDS011;58373;51.824;5.564;2022-08-06T03:33:52;8.77;;;3.50;;
57989;SDS011;58373;51.824;5.564;2022-08-06T03:36:19;8.32;;;3.40;;
57989;SDS011;58373;51.824;5.564;2022-08-06T03:38:51;6.90;;;3.30;;
57989;SDS011;58373;51.824;5.564;2022-08-06T03:41:21;10.30;;;3.50;;
57989;SDS011;58373;51.824;5.564;2022-08-06T03:43:48;10.02;;;3.53;;
57989;SDS011;58373;51.824;5.564;2022-08-06T03:46:15;9.50;;;3.80;;
57989;SDS011;58373;51.824;5.564;2022-08-06T03:48:46;7.07;;;3.45;;
57989;SDS011;58373;51.824;5.564;2022-08-06T03:51:13;9.68;;;4.30;;
57989;SDS011;58373;51.824;5.564;2022-08-06T03:53:44;8.90;;;3.97;;
57989;SDS011;58373;51.824;5.564;2022-08-06T03:56:14;9.63;;;3.70;;
57989;SDS011;58373;51.824;5.564;2022-08-06T03:58:43;8.52;;;3.78;;
57989;SDS011;58373;51.824;5.564;2022-08-06T04:01:12;7.63;;;3.63;;
57989;SDS011;58373;51.824;5.564;2022-08-06T04:03:41;9.63;;;4.25;;
57989;SDS011;58373;51.824;5.564;2022-08-06T04:06:09;8.48;;;4.60;;
57989;SDS011;58373;51.824;5.564;2022-08-06T04:08:36;7.10;;;3.85;;
57989;SDS011;58373;51.824;5.564;2022-08-06T04:11:04;8.50;;;3.78;;
57989;SDS011;58373;51.824;5.564;2022-08-06T04:13:30;10.60;;;4.25;;
57989;SDS011;58373;51.824;5.564;2022-08-06T04:15:56;7.55;;;4.05;;
57989;SDS011;58373;51.824;5.564;2022-08-06T04:18:25;9.88;;;4.30;;
57989;SDS011;58373;51.824;5.564;2022-08-06T04:21:05;10.40;;;4.13;;
57989;SDS011;58373;51.824;5.564;2022-08-06T04:23:33;8.13;;;4.07;;
57989;SDS011;58373;51.824;5.564;2022-08-06T04:26:00;9.45;;;4.28;;
57989;SDS011;58373;51.824;5.564;2022-08-06T04:28:28;7.82;;;4.18;;
57989;SDS011;58373;51.824;5.564;2022-08-06T04:30:55;9.15;;;4.40;;
57989;SDS011;58373;51.824;5.564;2022-08-06T04:33:24;10.63;;;4.50;;
57989;SDS011;58373;51.824;5.564;2022-08-06T04:35:51;8.65;;;4.60;;
57989;SDS011;58373;51.824;5.564;2022-08-06T04:38:18;9.65;;;4.40;;
57989;SDS011;58373;51.824;5.564;2022-08-06T04:40:46;8.88;;;4.03;;
57989;SDS011;58373;51.824;5.564;2022-08-06T04:43:13;9.73;;;4.43;;
57989;SDS011;58373;51.824;5.564;2022-08-06T04:45:40;10.35;;;4.72;;
57989;SDS011;58373;51.824;5.564;2022-08-06T04:48:11;9.63;;;4.95;;
57989;SDS011;58373;51.824;5.564;2022-08-06T04:50:37;9.65;;;5.05;;
57989;SDS011;58373;51.824;5.564;2022-08-06T04:55:32;12.77;;;5.60;;
57989;SDS011;58373;51.824;5.564;2022-08-06T04:57:57;9.82;;;5.00;;
57989;SDS011;58373;51.824;5.564;2022-08-06T05:00:23;7.93;;;5.13;;
57989;SDS011;58373;51.824;5.564;2022-08-06T05:02:50;9.38;;;5.35;;
57989;SDS011;58373;51.824;5.564;2022-08-06T05:05:16;9.73;;;5.43;;
57989;SDS011;58373;51.824;5.564;2022-08-06T05:10:10;11.65;;;5.50;;
57989;SDS011;58373;51.824;5.564;2022-08-06T05:12:41;9.73;;;5.18;;
57989;SDS011;58373;51.824;5.564;2022-08-06T05:15:11;9.70;;;5.50;;
57989;SDS011;58373;51.824;5.564;2022-08-06T05:17:48;12.60;;;5.53;;
57989;SDS011;58373;51.824;5.564;2022-08-06T05:20:18;11.95;;;5.57;;
57989;SDS011;58373;51.824;5.564;2022-08-06T05:22:48;10.52;;;5.45;;
57989;SDS011;58373;51.824;5.564;2022-08-06T05:25:17;12.35;;;5.80;;
57989;SDS011;58373;51.824;5.564;2022-08-06T05:27:43;12.10;;;6.07;;
57989;SDS011;58373;51.824;5.564;2022-08-06T05:30:09;9.48;;;5.38;;
57989;SDS011;58373;51.824;5.564;2022-08-06T05:32:44;11.43;;;5.28;;
57989;SDS011;58373;51.824;5.564;2022-08-06T05:35:11;9.43;;;5.15;;
57989;SDS011;58373;51.824;5.564;2022-08-06T05:37:38;9.27;;;5.00;;
57989;SDS011;58373;51.824;5.564;2022-08-06T05:40:04;11.38;;;5.38;;
57989;SDS011;58373;51.824;5.564;2022-08-06T05:42:30;10.75;;;5.45;;
57989;SDS011;58373;51.824;5.564;2022-08-06T05:44:55;13.45;;;5.60;;
57989;SDS011;58373;51.824;5.564;2022-08-06T05:47:23;12.10;;;5.45;;
57989;SDS011;58373;51.824;5.564;2022-08-06T05:50:04;10.13;;;5.28;;
57989;SDS011;58373;51.824;5.564;2022-08-06T05:53:02;10.70;;;5.50;;
57989;SDS011;58373;51.824;5.564;2022-08-06T05:55:37;10.68;;;5.65;;
57989;SDS011;58373;51.824;5.564;2022-08-06T05:58:11;10.52;;;5.05;;
57989;SDS011;58373;51.824;5.564;2022-08-06T06:00:39;10.50;;;5.40;;
57989;SDS011;58373;51.824;5.564;2022-08-06T06:03:06;10.40;;;5.50;;
57989;SDS011;58373;51.824;5.564;2022-08-06T06:05:36;11.68;;;5.30;;
57989;SDS011;58373;51.824;5.564;2022-08-06T06:08:03;10.90;;;5.38;;
57989;SDS011;58373;51.824;5.564;2022-08-06T06:10:31;12.55;;;4.97;;
57989;SDS011;58373;51.824;5.564;2022-08-06T06:12:58;7.82;;;4.55;;
57989;SDS011;58373;51.824;5.564;2022-08-06T06:15:25;8.32;;;4.38;;
57989;SDS011;58373;51.824;5.564;2022-08-06T06:17:58;9.48;;;4.88;;
57989;SDS011;58373;51.824;5.564;2022-08-06T06:28:49;9.90;;;5.05;;
57989;SDS011;58373;51.824;5.564;2022-08-06T06:34:23;11.07;;;4.97;;
57989;SDS011;58373;51.824;5.564;2022-08-06T06:37:09;9.07;;;4.40;;
57989;SDS011;58373;51.824;5.564;2022-08-06T06:40:09;7.43;;;3.53;;
57989;SDS011;58373;51.824;5.564;2022-08-06T06:42:49;10.63;;;4.10;;
57989;SDS011;58373;51.824;5.564;2022-08-06T06:45:28;8.65;;;4.18;;
57989;SDS011;58373;51.824;5.564;2022-08-06T06:48:16;7.70;;;4.15;;
57989;SDS011;58373;51.824;5.564;2022-08-06T06:50:47;10.05;;;5.05;;
57989;SDS011;58373;51.824;5.564;2022-08-06T06:53:17;10.57;;;5.07;;
57989;SDS011;58373;51.824;5.564;2022-08-06T06:55:46;10.05;;;4.68;;
57989;SDS011;58373;51.824;5.564;2022-08-06T06:58:16;8.48;;;4.07;;
57989;SDS011;58373;51.824;5.564;2022-08-06T07:00:46;9.43;;;4.93;;
57989;SDS011;58373;51.824;5.564;2022-08-06T07:03:12;10.18;;;4.70;;
57989;SDS011;58373;51.824;5.564;2022-08-06T07:05:42;7.53;;;3.70;;
57989;SDS011;58373;51.824;5.564;2022-08-06T07:08:11;8.70;;;3.15;;
57989;SDS011;58373;51.824;5.564;2022-08-06T07:10:40;6.90;;;2.67;;
57989;SDS011;58373;51.824;5.564;2022-08-06T07:13:07;6.93;;;2.57;;
57989;SDS011;58373;51.824;5.564;2022-08-06T07:15:35;7.63;;;2.78;;
57989;SDS011;58373;51.824;5.564;2022-08-06T07:18:02;7.43;;;2.70;;
57989;SDS011;58373;51.824;5.564;2022-08-06T07:20:29;5.50;;;2.30;;
57989;SDS011;58373;51.824;5.564;2022-08-06T07:23:00;7.15;;;2.47;;
57989;SDS011;58373;51.824;5.564;2022-08-06T07:25:28;8.77;;;2.35;;
57989;SDS011;58373;51.824;5.564;2022-08-06T07:27:54;7.78;;;2.20;;
57989;SDS011;58373;51.824;5.564;2022-08-06T07:30:21;5.90;;;1.75;;
57989;SDS011;58373;51.824;5.564;2022-08-06T07:32:47;7.57;;;2.00;;
57989;SDS011;58373;51.824;5.564;2022-08-06T07:35:18;4.88;;;1.60;;
57989;SDS011;58373;51.824;5.564;2022-08-06T07:37:49;5.82;;;1.85;;
57989;SDS011;58373;51.824;5.564;2022-08-06T07:40:30;6.07;;;1.20;;
57989;SDS011;58373;51.824;5.564;2022-08-06T07:43:03;2.65;;;0.90;;
57989;SDS011;58373;51.824;5.564;2022-08-06T07:45:33;3.33;;;0.95;;
57989;SDS011;58373;51.824;5.564;2022-08-06T07:48:00;4.15;;;1.20;;
57989;SDS011;58373;51.824;5.564;2022-08-06T07:50:31;3.72;;;1.10;;
57989;SDS011;58373;51.824;5.564;2022-08-06T07:52:57;4.70;;;0.90;;
57989;SDS011;58373;51.824;5.564;2022-08-06T07:55:24;4.90;;;1.00;;
57989;SDS011;58373;51.824;5.564;2022-08-06T07:57:52;3.17;;;0.90;;
57989;SDS011;58373;51.824;5.564;2022-08-06T08:00:20;4.28;;;1.15;;
57989;SDS011;58373;51.824;5.564;2022-08-06T08:02:47;5.82;;;1.15;;
57989;SDS011;58373;51.824;5.564;2022-08-06T08:05:32;5.63;;;0.98;;
57989;SDS011;58373;51.824;5.564;2022-08-06T08:08:18;4.00;;;1.10;;
57989;SDS011;58373;51.824;5.564;2022-08-06T08:10:43;3.95;;;1.05;;
57989;SDS011;58373;51.824;5.564;2022-08-06T08:13:10;5.10;;;1.23;;
57989;SDS011;58373;51.824;5.564;2022-08-06T08:15:36;4.90;;;0.85;;
57989;SDS011;58373;51.824;5.564;2022-08-06T08:18:03;4.70;;;1.00;;
57989;SDS011;58373;51.824;5.564;2022-08-06T08:20:29;3.30;;;0.90;;
57989;SDS011;58373;51.824;5.564;2022-08-06T08:22:56;5.15;;;1.00;;
57989;SDS011;58373;51.824;5.564;2022-08-06T08:25:22;6.28;;;1.30;;
57989;SDS011;58373;51.824;5.564;2022-08-06T08:27:47;4.72;;;1.17;;
57989;SDS011;58373;51.824;5.564;2022-08-06T08:30:12;3.25;;;0.80;;
57989;SDS011;58373;51.824;5.564;2022-08-06T08:32:38;8.25;;;1.13;;
57989;SDS011;58373;51.824;5.564;2022-08-06T08:35:03;4.57;;;1.20;;
57989;SDS011;58373;51.824;5.564;2022-08-06T08:37:29;4.03;;;1.00;;
57989;SDS011;58373;51.824;5.564;2022-08-06T08:39:55;3.47;;;1.00;;
57989;SDS011;58373;51.824;5.564;2022-08-06T08:42:23;5.18;;;1.05;;
57989;SDS011;58373;51.824;5.564;2022-08-06T08:45:12;4.55;;;1.08;;
57989;SDS011;58373;51.824;5.564;2022-08-06T08:47:40;4.75;;;0.90;;
57989;SDS011;58373;51.824;5.564;2022-08-06T08:50:10;2.80;;;0.82;;
57989;SDS011;58373;51.824;5.564;2022-08-06T08:52:37;5.50;;;0.98;;
57989;SDS011;58373;51.824;5.564;2022-08-06T08:55:05;4.05;;;0.93;;
57989;SDS011;58373;51.824;5.564;2022-08-06T08:57:33;3.90;;;0.82;;
57989;SDS011;58373;51.824;5.564;2022-08-06T09:00:01;3.45;;;0.95;;
57989;SDS011;58373;51.824;5.564;2022-08-06T09:02:28;3.45;;;0.75;;
57989;SDS011;58373;51.824;5.564;2022-08-06T09:04:54;5.43;;;1.00;;
57989;SDS011;58373;51.824;5.564;2022-08-06T09:07:20;4.45;;;0.82;;
57989;SDS011;58373;51.824;5.564;2022-08-06T09:09:46;4.45;;;0.95;;
57989;SDS011;58373;51.824;5.564;2022-08-06T09:12:11;2.50;;;0.80;;
57989;SDS011;58373;51.824;5.564;2022-08-06T09:14:37;3.47;;;0.90;;
57989;SDS011;58373;51.824;5.564;2022-08-06T09:17:03;3.22;;;0.90;;
57989;SDS011;58373;51.824;5.564;2022-08-06T09:19:30;3.25;;;0.93;;
57989;SDS011;58373;51.824;5.564;2022-08-06T09:21:59;1.60;;;0.70;;
57989;SDS011;58373;51.824;5.564;2022-08-06T09:24:25;3.67;;;1.02;;
57989;SDS011;58373;51.824;5.564;2022-08-06T09:27:01;3.70;;;0.90;;
57989;SDS011;58373;51.824;5.564;2022-08-06T09:29:30;4.07;;;1.00;;
57989;SDS011;58373;51.824;5.564;2022-08-06T09:31:56;2.53;;;0.80;;
57989;SDS011;58373;51.824;5.564;2022-08-06T09:34:30;2.38;;;0.90;;
57989;SDS011;58373;51.824;5.564;2022-08-06T09:36:57;3.17;;;1.13;;
57989;SDS011;58373;51.824;5.564;2022-08-06T09:39:38;4.57;;;1.13;;
57989;SDS011;58373;51.824;5.564;2022-08-06T09:42:05;2.42;;;0.65;;
57989;SDS011;58373;51.824;5.564;2022-08-06T09:44:31;2.75;;;0.90;;
57989;SDS011;58373;51.824;5.564;2022-08-06T09:46:57;2.17;;;0.90;;
57989;SDS011;58373;51.824;5.564;2022-08-06T09:49:25;2.73;;;0.70;;
57989;SDS011;58373;51.824;5.564;2022-08-06T09:51:51;2.25;;;0.88;;
57989;SDS011;58373;51.824;5.564;2022-08-06T09:54:36;2.22;;;0.80;;
57989;SDS011;58373;51.824;5.564;2022-08-06T09:57:01;4.47;;;0.77;;
57989;SDS011;58373;51.824;5.564;2022-08-06T09:59:27;2.55;;;0.75;;
57989;SDS011;58373;51.824;5.564;2022-08-06T10:01:52;2.08;;;0.90;;
57989;SDS011;58373;51.824;5.564;2022-08-06T10:04:25;3.25;;;1.00;;
57989;SDS011;58373;51.824;5.564;2022-08-06T10:06:56;2.30;;;0.70;;
57989;SDS011;58373;51.824;5.564;2022-08-06T10:09:23;4.15;;;1.10;;
57989;SDS011;58373;51.824;5.564;2022-08-06T10:11:49;2.45;;;0.95;;
57989;SDS011;58373;51.824;5.564;2022-08-06T10:14:28;2.25;;;0.82;;
57989;SDS011;58373;51.824;5.564;2022-08-06T10:17:10;2.92;;;0.88;;
57989;SDS011;58373;51.824;5.564;2022-08-06T10:19:37;2.47;;;0.88;;
57989;SDS011;58373;51.824;5.564;2022-08-06T10:22:17;3.15;;;0.98;;
57989;SDS011;58373;51.824;5.564;2022-08-06T10:24:48;3.50;;;0.90;;
57989;SDS011;58373;51.824;5.564;2022-08-06T10:27:16;2.92;;;0.90;;
57989;SDS011;58373;51.824;5.564;2022-08-06T10:29:50;2.65;;;1.00;;
57989;SDS011;58373;51.824;5.564;2022-08-06T10:32:22;4.05;;;1.25;;
57989;SDS011;58373;51.824;5.564;2022-08-06T10:34:54;2.72;;;0.90;;
57989;SDS011;58373;51.824;5.564;2022-08-06T10:37:22;3.17;;;0.97;;
57989;SDS011;58373;51.824;5.564;2022-08-06T10:39:50;3.92;;;1.00;;
57989;SDS011;58373;51.824;5.564;2022-08-06T10:42:19;1.52;;;0.65;;
57989;SDS011;58373;51.824;5.564;2022-08-06T10:44:45;2.08;;;0.90;;
57989;SDS011;58373;51.824;5.564;2022-08-06T10:47:12;3.38;;;0.90;;
57989;SDS011;58373;51.824;5.564;2022-08-06T10:49:38;2.88;;;0.80;;
57989;SDS011;58373;51.824;5.564;2022-08-06T10:52:04;3.13;;;0.80;;
57989;SDS011;58373;51.824;5.564;2022-08-06T10:54:30;3.85;;;0.85;;
57989;SDS011;58373;51.824;5.564;2022-08-06T10:56:56;1.77;;;0.80;;
57989;SDS011;58373;51.824;5.564;2022-08-06T10:59:22;3.42;;;0.93;;
57989;SDS011;58373;51.824;5.564;2022-08-06T11:15:44;2.72;;;0.93;;
57989;SDS011;58373;51.824;5.564;2022-08-06T11:18:10;3.08;;;0.90;;
57989;SDS011;58373;51.824;5.564;2022-08-06T11:20:38;3.08;;;0.90;;
57989;SDS011;58373;51.824;5.564;2022-08-06T11:28:03;2.90;;;1.00;;
57989;SDS011;58373;51.824;5.564;2022-08-06T11:33:09;4.40;;;1.00;;
57989;SDS011;58373;51.824;5.564;2022-08-06T11:38:04;3.08;;;0.90;;
57989;SDS011;58373;51.824;5.564;2022-08-06T11:54:23;3.67;;;0.95;;
57989;SDS011;58373;51.824;5.564;2022-08-06T12:01:57;2.58;;;0.80;;
57989;SDS011;58373;51.824;5.564;2022-08-06T12:09:47;1.83;;;0.70;;
57989;SDS011;58373;51.824;5.564;2022-08-06T12:17:19;3.17;;;0.70;;
57989;SDS011;58373;51.824;5.564;2022-08-06T12:19:46;2.15;;;0.57;;
57989;SDS011;58373;51.824;5.564;2022-08-06T12:22:14;1.38;;;0.60;;
57989;SDS011;58373;51.824;5.564;2022-08-06T12:24:43;2.28;;;0.68;;
57989;SDS011;58373;51.824;5.564;2022-08-06T12:27:10;2.17;;;0.68;;
57989;SDS011;58373;51.824;5.564;2022-08-06T12:29:37;2.13;;;0.80;;
57989;SDS011;58373;51.824;5.564;2022-08-06T12:32:25;1.75;;;0.65;;
57989;SDS011;58373;51.824;5.564;2022-08-06T12:34:58;2.35;;;0.80;;
57989;SDS011;58373;51.824;5.564;2022-08-06T12:40:13;2.13;;;0.90;;
57989;SDS011;58373;51.824;5.564;2022-08-06T12:42:49;2.53;;;0.80;;
57989;SDS011;58373;51.824;5.564;2022-08-06T12:45:21;1.65;;;0.80;;
57989;SDS011;58373;51.824;5.564;2022-08-06T12:48:04;2.28;;;0.90;;
57989;SDS011;58373;51.824;5.564;2022-08-06T12:50:36;1.90;;;0.80;;
57989;SDS011;58373;51.824;5.564;2022-08-06T12:53:08;2.67;;;0.80;;
57989;SDS011;58373;51.824;5.564;2022-08-06T12:55:51;1.30;;;0.75;;
57989;SDS011;58373;51.824;5.564;2022-08-06T12:58:18;1.27;;;0.73;;
57989;SDS011;58373;51.824;5.564;2022-08-06T13:00:48;1.20;;;0.60;;
57989;SDS011;58373;51.824;5.564;2022-08-06T13:03:15;2.58;;;0.70;;
57989;SDS011;58373;51.824;5.564;2022-08-06T13:05:43;1.45;;;0.70;;
57989;SDS011;58373;51.824;5.564;2022-08-06T13:08:09;1.98;;;0.65;;
57989;SDS011;58373;51.824;5.564;2022-08-06T13:10:37;2.45;;;0.73;;
57989;SDS011;58373;51.824;5.564;2022-08-06T13:13:04;1.63;;;0.68;;
57989;SDS011;58373;51.824;5.564;2022-08-06T13:15:31;2.22;;;0.93;;
57989;SDS011;58373;51.824;5.564;2022-08-06T13:18:01;0.63;;;0.63;;
57989;SDS011;58373;51.824;5.564;2022-08-06T13:20:40;3.13;;;0.88;;
57989;SDS011;58373;51.824;5.564;2022-08-06T13:23:09;1.80;;;0.60;;
57989;SDS011;58373;51.824;5.564;2022-08-06T13:25:39;0.87;;;0.47;;
57989;SDS011;58373;51.824;5.564;2022-08-06T13:28:18;1.17;;;0.60;;
57989;SDS011;58373;51.824;5.564;2022-08-06T13:30:45;1.83;;;0.70;;
57989;SDS011;58373;51.824;5.564;2022-08-06T13:33:23;1.30;;;0.50;;
57989;SDS011;58373;51.824;5.564;2022-08-06T13:36:03;1.43;;;0.60;;
57989;SDS011;58373;51.824;5.564;2022-08-06T13:38:34;2.22;;;0.65;;
57989;SDS011;58373;51.824;5.564;2022-08-06T13:41:01;1.38;;;0.57;;
57989;SDS011;58373;51.824;5.564;2022-08-06T13:43:40;2.65;;;0.80;;
57989;SDS011;58373;51.824;5.564;2022-08-06T13:46:14;0.82;;;0.60;;
57989;SDS011;58373;51.824;5.564;2022-08-06T13:48:45;1.23;;;0.60;;
57989;SDS011;58373;51.824;5.564;2022-08-06T13:51:15;1.48;;;0.70;;
57989;SDS011;58373;51.824;5.564;2022-08-06T13:53:45;2.80;;;0.77;;
57989;SDS011;58373;51.824;5.564;2022-08-06T13:56:12;1.85;;;0.70;;
57989;SDS011;58373;51.824;5.564;2022-08-06T13:58:39;2.10;;;0.60;;
57989;SDS011;58373;51.824;5.564;2022-08-06T14:01:04;2.97;;;0.85;;
57989;SDS011;58373;51.824;5.564;2022-08-06T14:03:30;2.10;;;0.80;;
57989;SDS011;58373;51.824;5.564;2022-08-06T14:05:56;3.88;;;0.85;;
57989;SDS011;58373;51.824;5.564;2022-08-06T14:08:21;2.50;;;0.80;;
57989;SDS011;58373;51.824;5.564;2022-08-06T14:10:47;2.60;;;1.00;;
57989;SDS011;58373;51.824;5.564;2022-08-06T14:13:12;1.95;;;0.70;;
57989;SDS011;58373;51.824;5.564;2022-08-06T14:18:06;2.17;;;0.90;;
57989;SDS011;58373;51.824;5.564;2022-08-06T14:20:31;2.70;;;0.70;;
57989;SDS011;58373;51.824;5.564;2022-08-06T14:22:57;1.92;;;0.80;;
57989;SDS011;58373;51.824;5.564;2022-08-06T14:25:23;3.38;;;1.08;;
57989;SDS011;58373;51.824;5.564;2022-08-06T14:27:48;1.30;;;0.90;;
57989;SDS011;58373;51.824;5.564;2022-08-06T14:30:15;1.92;;;0.90;;
57989;SDS011;58373;51.824;5.564;2022-08-06T14:32:41;3.33;;;0.90;;
57989;SDS011;58373;51.824;5.564;2022-08-06T14:35:09;1.88;;;0.80;;
57989;SDS011;58373;51.824;5.564;2022-08-06T14:37:35;2.47;;;0.95;;
57989;SDS011;58373;51.824;5.564;2022-08-06T14:40:00;2.65;;;1.00;;
57989;SDS011;58373;51.824;5.564;2022-08-06T14:42:26;2.17;;;0.90;;
57989;SDS011;58373;51.824;5.564;2022-08-06T14:45:11;3.30;;;1.00;;
57989;SDS011;58373;51.824;5.564;2022-08-06T14:47:36;1.67;;;0.90;;
57989;SDS011;58373;51.824;5.564;2022-08-06T14:50:02;1.45;;;0.90;;
57989;SDS011;58373;51.824;5.564;2022-08-06T14:52:31;1.55;;;0.90;;
57989;SDS011;58373;51.824;5.564;2022-08-06T14:54:56;2.47;;;1.13;;
57989;SDS011;58373;51.824;5.564;2022-08-06T14:57:24;1.85;;;1.00;;
57989;SDS011;58373;51.824;5.564;2022-08-06T14:59:49;6.20;;;1.20;;
57989;SDS011;58373;51.824;5.564;2022-08-06T15:02:15;5.72;;;2.22;;
57989;SDS011;58373;51.824;5.564;2022-08-06T15:04:41;55.25;;;50.20;;
57989;SDS011;58373;51.824;5.564;2022-08-06T15:07:06;116.10;;;105.53;;
57989;SDS011;58373;51.824;5.564;2022-08-06T15:09:32;1669.10;;;999.90;;
57989;SDS011;58373;51.824;5.564;2022-08-06T15:11:58;148.68;;;124.97;;
57989;SDS011;58373;51.824;5.564;2022-08-06T15:14:24;334.33;;;303.13;;
57989;SDS011;58373;51.824;5.564;2022-08-06T15:16:51;17.60;;;15.90;;
57989;SDS011;58373;51.824;5.564;2022-08-06T15:19:17;41.22;;;37.97;;
57989;SDS011;58373;51.824;5.564;2022-08-06T15:21:43;242.10;;;218.93;;
57989;SDS011;58373;51.824;5.564;2022-08-06T15:24:08;188.40;;;175.90;;
57989;SDS011;58373;51.824;5.564;2022-08-06T15:26:33;86.60;;;81.00;;
57989;SDS011;58373;51.824;5.564;2022-08-06T15:29:01;489.13;;;456.58;;
57989;SDS011;58373;51.824;5.564;2022-08-06T15:31:26;420.02;;;393.30;;
57989;SDS011;58373;51.824;5.564;2022-08-06T15:33:52;177.30;;;166.80;;
57989;SDS011;58373;51.824;5.564;2022-08-06T15:36:18;65.00;;;60.80;;
57989;SDS011;58373;51.824;5.564;2022-08-06T15:38:44;465.10;;;422.13;;
57989;SDS011;58373;51.824;5.564;2022-08-06T15:41:10;164.70;;;153.30;;
57989;SDS011;58373;51.824;5.564;2022-08-06T15:43:35;424.85;;;391.42;;
57989;SDS011;58373;51.824;5.564;2022-08-06T15:46:00;112.38;;;102.82;;
57989;SDS011;58373;51.824;5.564;2022-08-06T15:48:26;692.30;;;629.67;;
57989;SDS011;58373;51.824;5.564;2022-08-06T15:50:53;530.75;;;477.95;;
57989;SDS011;58373;51.824;5.564;2022-08-06T15:53:19;673.00;;;602.13;;
57989;SDS011;58373;51.824;5.564;2022-08-06T15:55:46;977.35;;;804.83;;
57989;SDS011;58373;51.824;5.564;2022-08-06T15:58:12;760.00;;;681.70;;
57989;SDS011;58373;51.824;5.564;2022-08-06T16:00:39;446.15;;;403.92;;
57989;SDS011;58373;51.824;5.564;2022-08-06T16:03:06;859.80;;;771.95;;
57989;SDS011;58373;51.824;5.564;2022-08-06T16:05:34;267.80;;;246.50;;
57989;SDS011;58373;51.824;5.564;2022-08-06T16:08:00;47.45;;;43.60;;
57989;SDS011;58373;51.824;5.564;2022-08-06T16:10:26;8.75;;;7.13;;
57989;SDS011;58373;51.824;5.564;2022-08-06T16:12:52;2.25;;;1.20;;
57989;SDS011;58373;51.824;5.564;2022-08-06T16:15:17;4.03;;;1.33;;
57989;SDS011;58373;51.824;5.564;2022-08-06T16:17:44;1.55;;;1.10;;
57989;SDS011;58373;51.824;5.564;2022-08-06T16:20:10;7.30;;;6.22;;
57989;SDS011;58373;51.824;5.564;2022-08-06T16:22:36;6.60;;;5.05;;